logo
Search for airport 
image banner adimage banner adimage banner ad
image banner ad

SNFF - Feijo

Located in Fortaleza, Brazil

ICAO - SNFF, IATA -

Data provided by Airmate  

General information

Coordinates: S3°48'34" W38°37'1"
Elevation is 82 feet MSL.
Magnetic variation is -20.770086193° East
View others Airports in Ceará

Operational data

Special qualification required
Current time UTC:
Current local time:
Weather at : SBFZ - Pinto Martins ( 10 km )
METAR: SBFZ 251800Z 09010KT 9999 SCT025 31/25 Q1010
TAF: TAF SBFZ 251630Z 2518/2618 12006KT 8000 SCT020 TN26/2609Z TX31/2618Z BECMG 2518/2520 10006KT BECMG 2600/2602 15006KT TEMPO 2602/2608 6000 TS BKN020 FEW030CB BECMG 2608/2610 17005KT BECMG 2612/2614 12006KT TEMPO 2614/2617 09012KT 6000 SCT020 FEW030TCU RMK PGW
View NOTAMs / SUP AIP / TFR affecting this airport [VIEW]
Communications frequencies: [VIEW]

Runways:

RWY identifierQFULength (ft)Width (ft)SurfaceLDA (ft)
13180459ASPH
31180459ASPH

Airport contact information

Address: Fortaleza Brazil

Satellite view of SNFF